sensor_id;sensor_type;location;lat;lon;timestamp;temperature;humidity
19033;DHT22;9649;51.042;13.804;2023-06-05T00:02:53;13.40;99.90
19033;DHT22;9649;51.042;13.804;2023-06-05T00:07:56;13.10;99.90
19033;DHT22;9649;51.042;13.804;2023-06-05T00:12:59;12.90;99.90
19033;DHT22;9649;51.042;13.804;2023-06-05T00:18:03;12.90;99.90
19033;DHT22;9649;51.042;13.804;2023-06-05T00:23:08;12.80;99.90
19033;DHT22;9649;51.042;13.804;2023-06-05T00:28:12;12.70;1.00
19033;DHT22;9649;51.042;13.804;2023-06-05T00:33:16;12.60;1.00
19033;DHT22;9649;51.042;13.804;2023-06-05T00:38:19;12.40;1.00
19033;DHT22;9649;51.042;13.804;2023-06-05T00:43:22;12.30;1.00
19033;DHT22;9649;51.042;13.804;2023-06-05T00:48:26;12.20;1.00
19033;DHT22;9649;51.042;13.804;2023-06-05T00:53:30;12.20;1.00
19033;DHT22;9649;51.042;13.804;2023-06-05T00:58:35;11.90;1.00
19033;DHT22;9649;51.042;13.804;2023-06-05T01:03:39;11.80;45.60
19033;DHT22;9649;51.042;13.804;2023-06-05T01:08:42;11.90;99.90
19033;DHT22;9649;51.042;13.804;2023-06-05T01:13:53;11.70;99.90
19033;DHT22;9649;51.042;13.804;2023-06-05T01:18:59;11.70;1.00
19033;DHT22;9649;51.042;13.804;2023-06-05T01:24:05;11.60;1.00
19033;DHT22;9649;51.042;13.804;2023-06-05T01:29:11;11.70;1.00
19033;DHT22;9649;51.042;13.804;2023-06-05T01:34:17;11.60;1.00
19033;DHT22;9649;51.042;13.804;2023-06-05T01:39:23;11.80;99.90
19033;DHT22;9649;51.042;13.804;2023-06-05T01:44:27;11.60;1.00
19033;DHT22;9649;51.042;13.804;2023-06-05T01:49:31;11.50;1.00
19033;DHT22;9649;51.042;13.804;2023-06-05T01:54:35;11.60;1.00
19033;DHT22;9649;51.042;13.804;2023-06-05T01:59:38;11.50;99.90
19033;DHT22;9649;51.042;13.804;2023-06-05T02:04:40;11.60;99.90
19033;DHT22;9649;51.042;13.804;2023-06-05T02:09:45;11.20;1.00
19033;DHT22;9649;51.042;13.804;2023-06-05T02:14:48;11.00;1.00
19033;DHT22;9649;51.042;13.804;2023-06-05T02:19:51;11.30;1.00
19033;DHT22;9649;51.042;13.804;2023-06-05T02:24:56;11.00;1.00
19033;DHT22;9649;51.042;13.804;2023-06-05T02:29:58;11.00;14.40
19033;DHT22;9649;51.042;13.804;2023-06-05T02:35:01;10.80;99.90
19033;DHT22;9649;51.042;13.804;2023-06-05T02:40:09;10.90;99.90
19033;DHT22;9649;51.042;13.804;2023-06-05T02:45:12;10.90;99.90
19033;DHT22;9649;51.042;13.804;2023-06-05T02:50:14;10.80;1.00
19033;DHT22;9649;51.042;13.804;2023-06-05T02:55:18;10.80;1.00
19033;DHT22;9649;51.042;13.804;2023-06-05T03:00:21;11.00;1.00
19033;DHT22;9649;51.042;13.804;2023-06-05T03:05:24;11.00;1.00
19033;DHT22;9649;51.042;13.804;2023-06-05T03:10:29;10.80;1.00
19033;DHT22;9649;51.042;13.804;2023-06-05T03:15:32;10.70;1.00
19033;DHT22;9649;51.042;13.804;2023-06-05T03:20:36;10.70;1.00
19033;DHT22;9649;51.042;13.804;2023-06-05T03:25:41;10.90;1.00
19033;DHT22;9649;51.042;13.804;2023-06-05T03:30:44;10.80;1.00
19033;DHT22;9649;51.042;13.804;2023-06-05T03:35:47;10.90;99.90
19033;DHT22;9649;51.042;13.804;2023-06-05T03:40:52;11.10;1.00
19033;DHT22;9649;51.042;13.804;2023-06-05T03:45:54;11.30;1.00
19033;DHT22;9649;51.042;13.804;2023-06-05T03:50:58;11.20;1.00
19033;DHT22;9649;51.042;13.804;2023-06-05T03:56:03;11.30;1.00
19033;DHT22;9649;51.042;13.804;2023-06-05T04:01:07;11.40;1.00
19033;DHT22;9649;51.042;13.804;2023-06-05T04:06:10;11.50;1.00
19033;DHT22;9649;51.042;13.804;2023-06-05T04:11:14;11.50;1.00
19033;DHT22;9649;51.042;13.804;2023-06-05T04:16:18;11.60;1.00
19033;DHT22;9649;51.042;13.804;2023-06-05T04:21:20;11.80;99.90
19033;DHT22;9649;51.042;13.804;2023-06-05T04:26:24;11.80;1.00
19033;DHT22;9649;51.042;13.804;2023-06-05T04:31:29;12.10;99.90
19033;DHT22;9649;51.042;13.804;2023-06-05T04:36:31;12.50;99.90
19033;DHT22;9649;51.042;13.804;2023-06-05T04:41:37;12.80;1.00
19033;DHT22;9649;51.042;13.804;2023-06-05T04:46:46;12.90;1.00
19033;DHT22;9649;51.042;13.804;2023-06-05T04:51:49;13.10;1.00
19033;DHT22;9649;51.042;13.804;2023-06-05T04:56:53;13.10;1.00
19033;DHT22;9649;51.042;13.804;2023-06-05T05:01:56;12.80;1.00
19033;DHT22;9649;51.042;13.804;2023-06-05T05:06:59;12.60;99.90
19033;DHT22;9649;51.042;13.804;2023-06-05T05:12:04;12.70;1.00
19033;DHT22;9649;51.042;13.804;2023-06-05T05:17:08;12.70;1.00
19033;DHT22;9649;51.042;13.804;2023-06-05T05:22:11;12.90;99.90
19033;DHT22;9649;51.042;13.804;2023-06-05T05:27:15;13.10;33.50
19033;DHT22;9649;51.042;13.804;2023-06-05T05:32:18;13.60;1.00
19033;DHT22;9649;51.042;13.804;2023-06-05T05:37:21;14.00;99.90
19033;DHT22;9649;51.042;13.804;2023-06-05T05:42:25;14.40;99.90
19033;DHT22;9649;51.042;13.804;2023-06-05T05:47:28;14.70;16.90
19033;DHT22;9649;51.042;13.804;2023-06-05T05:52:31;15.00;1.00
19033;DHT22;9649;51.042;13.804;2023-06-05T05:57:35;15.20;1.00
19033;DHT22;9649;51.042;13.804;2023-06-05T06:02:38;15.60;1.00
19033;DHT22;9649;51.042;13.804;2023-06-05T06:07:41;16.10;1.00
19033;DHT22;9649;51.042;13.804;2023-06-05T06:12:46;16.30;1.00
19033;DHT22;9649;51.042;13.804;2023-06-05T06:17:49;16.50;1.00
19033;DHT22;9649;51.042;13.804;2023-06-05T06:22:51;16.40;1.00
19033;DHT22;9649;51.042;13.804;2023-06-05T06:27:55;16.20;1.00
19033;DHT22;9649;51.042;13.804;2023-06-05T06:32:58;16.50;1.00
19033;DHT22;9649;51.042;13.804;2023-06-05T06:38:01;17.20;1.00
19033;DHT22;9649;51.042;13.804;2023-06-05T06:43:06;18.20;1.00
19033;DHT22;9649;51.042;13.804;2023-06-05T06:48:08;19.00;1.00
19033;DHT22;9649;51.042;13.804;2023-06-05T06:53:11;19.50;1.00
19033;DHT22;9649;51.042;13.804;2023-06-05T06:58:15;19.80;1.00
19033;DHT22;9649;51.042;13.804;2023-06-05T07:03:19;20.00;1.00
19033;DHT22;9649;51.042;13.804;2023-06-05T07:08:22;20.10;99.90
19033;DHT22;9649;51.042;13.804;2023-06-05T07:13:26;20.00;99.90
19033;DHT22;9649;51.042;13.804;2023-06-05T07:18:29;20.20;99.90
19033;DHT22;9649;51.042;13.804;2023-06-05T07:23:32;20.40;99.90
19033;DHT22;9649;51.042;13.804;2023-06-05T07:28:36;20.30;99.90
19033;DHT22;9649;51.042;13.804;2023-06-05T07:33:39;20.30;99.90
19033;DHT22;9649;51.042;13.804;2023-06-05T07:38:42;20.70;99.90
19033;DHT22;9649;51.042;13.804;2023-06-05T07:43:47;20.80;99.90
19033;DHT22;9649;51.042;13.804;2023-06-05T07:48:49;21.20;99.90
19033;DHT22;9649;51.042;13.804;2023-06-05T07:53:52;21.50;99.90
19033;DHT22;9649;51.042;13.804;2023-06-05T07:58:56;22.00;99.90
19033;DHT22;9649;51.042;13.804;2023-06-05T08:03:59;22.40;99.90
19033;DHT22;9649;51.042;13.804;2023-06-05T08:09:02;23.00;99.90
19033;DHT22;9649;51.042;13.804;2023-06-05T08:14:06;23.30;99.90
19033;DHT22;9649;51.042;13.804;2023-06-05T08:19:09;23.70;99.90
19033;DHT22;9649;51.042;13.804;2023-06-05T08:24:12;24.30;99.90
19033;DHT22;9649;51.042;13.804;2023-06-05T08:29:16;24.90;99.90
19033;DHT22;9649;51.042;13.804;2023-06-05T08:34:19;25.00;99.90
19033;DHT22;9649;51.042;13.804;2023-06-05T08:39:22;25.60;99.90
19033;DHT22;9649;51.042;13.804;2023-06-05T08:44:27;26.40;99.90
19033;DHT22;9649;51.042;13.804;2023-06-05T08:49:30;27.20;99.90
19033;DHT22;9649;51.042;13.804;2023-06-05T08:54:38;27.90;99.90
19033;DHT22;9649;51.042;13.804;2023-06-05T08:59:43;28.80;99.90
19033;DHT22;9649;51.042;13.804;2023-06-05T09:04:46;29.60;99.90
19033;DHT22;9649;51.042;13.804;2023-06-05T09:09:51;30.50;99.90
19033;DHT22;9649;51.042;13.804;2023-06-05T09:14:55;33.40;99.90
19033;DHT22;9649;51.042;13.804;2023-06-05T09:19:59;35.70;99.90
19033;DHT22;9649;51.042;13.804;2023-06-05T09:25:03;36.90;99.90
19033;DHT22;9649;51.042;13.804;2023-06-05T09:30:08;36.80;86.40
19033;DHT22;9649;51.042;13.804;2023-06-05T09:35:16;34.60;80.90
19033;DHT22;9649;51.042;13.804;2023-06-05T09:40:36;31.20;93.30
19033;DHT22;9649;51.042;13.804;2023-06-05T09:45:43;32.50;94.90
19033;DHT22;9649;51.042;13.804;2023-06-05T09:50:46;35.10;82.10
19033;DHT22;9649;51.042;13.804;2023-06-05T09:55:50;32.40;83.40
19033;DHT22;9649;51.042;13.804;2023-06-05T10:00:55;30.10;91.90
19033;DHT22;9649;51.042;13.804;2023-06-05T10:06:03;31.10;99.10
19033;DHT22;9649;51.042;13.804;2023-06-05T10:11:09;31.50;95.30
19033;DHT22;9649;51.042;13.804;2023-06-05T10:16:14;31.80;93.80
19033;DHT22;9649;51.042;13.804;2023-06-05T10:21:27;34.30;92.50
19033;DHT22;9649;51.042;13.804;2023-06-05T10:32:32;41.80;23.00
19033;DHT22;9649;51.042;13.804;2023-06-05T10:37:44;44.80;1.00
19033;DHT22;9649;51.042;13.804;2023-06-05T10:42:50;48.30;1.00
19033;DHT22;9649;51.042;13.804;2023-06-05T10:47:55;48.10;1.00
19033;DHT22;9649;51.042;13.804;2023-06-05T10:52:58;45.40;1.00
19033;DHT22;9649;51.042;13.804;2023-06-05T10:58:02;45.10;1.00
19033;DHT22;9649;51.042;13.804;2023-06-05T11:03:07;40.90;1.00
19033;DHT22;9649;51.042;13.804;2023-06-05T11:08:11;37.80;1.00
19033;DHT22;9649;51.042;13.804;2023-06-05T11:13:16;37.60;1.00
19033;DHT22;9649;51.042;13.804;2023-06-05T11:18:31;42.30;1.00
19033;DHT22;9649;51.042;13.804;2023-06-05T11:23:34;42.40;1.00
19033;DHT22;9649;51.042;13.804;2023-06-05T11:28:38;42.00;1.00
19033;DHT22;9649;51.042;13.804;2023-06-05T11:33:43;41.20;1.00
19033;DHT22;9649;51.042;13.804;2023-06-05T11:38:52;41.00;1.00
19033;DHT22;9649;51.042;13.804;2023-06-05T11:43:55;40.00;1.00
19033;DHT22;9649;51.042;13.804;2023-06-05T11:49:00;40.00;1.00
19033;DHT22;9649;51.042;13.804;2023-06-05T11:54:03;39.90;1.00
19033;DHT22;9649;51.042;13.804;2023-06-05T11:59:08;41.20;1.00
19033;DHT22;9649;51.042;13.804;2023-06-05T12:04:12;43.20;1.00
19033;DHT22;9649;51.042;13.804;2023-06-05T12:09:18;46.30;1.00
19033;DHT22;9649;51.042;13.804;2023-06-05T12:14:30;48.30;1.00
19033;DHT22;9649;51.042;13.804;2023-06-05T12:19:34;49.70;1.00
19033;DHT22;9649;51.042;13.804;2023-06-05T12:24:37;47.20;1.00
19033;DHT22;9649;51.042;13.804;2023-06-05T12:29:52;46.70;1.00
19033;DHT22;9649;51.042;13.804;2023-06-05T12:34:57;45.40;1.00
19033;DHT22;9649;51.042;13.804;2023-06-05T12:40:10;40.80;1.00
19033;DHT22;9649;51.042;13.804;2023-06-05T12:45:14;41.60;1.00
19033;DHT22;9649;51.042;13.804;2023-06-05T12:50:19;40.50;1.00
19033;DHT22;9649;51.042;13.804;2023-06-05T12:55:22;41.80;1.00
19033;DHT22;9649;51.042;13.804;2023-06-05T13:00:25;45.00;1.00
19033;DHT22;9649;51.042;13.804;2023-06-05T13:05:29;46.90;1.00
19033;DHT22;9649;51.042;13.804;2023-06-05T13:10:33;44.50;1.00
19033;DHT22;9649;51.042;13.804;2023-06-05T13:15:36;41.00;1.00
19033;DHT22;9649;51.042;13.804;2023-06-05T13:20:42;41.10;1.00
19033;DHT22;9649;51.042;13.804;2023-06-05T13:25:44;43.90;1.00
19033;DHT22;9649;51.042;13.804;2023-06-05T13:30:48;42.00;1.00
19033;DHT22;9649;51.042;13.804;2023-06-05T13:35:52;43.20;1.00
19033;DHT22;9649;51.042;13.804;2023-06-05T13:40:55;45.20;1.00
19033;DHT22;9649;51.042;13.804;2023-06-05T13:45:58;41.30;1.00
19033;DHT22;9649;51.042;13.804;2023-06-05T13:51:03;38.70;1.00
19033;DHT22;9649;51.042;13.804;2023-06-05T13:56:06;40.00;1.00
19033;DHT22;9649;51.042;13.804;2023-06-05T14:01:09;40.40;1.00
19033;DHT22;9649;51.042;13.804;2023-06-05T14:06:13;38.70;1.00
19033;DHT22;9649;51.042;13.804;2023-06-05T14:11:16;37.20;1.00
19033;DHT22;9649;51.042;13.804;2023-06-05T14:16:19;35.30;1.00
19033;DHT22;9649;51.042;13.804;2023-06-05T14:21:24;33.10;1.00
19033;DHT22;9649;51.042;13.804;2023-06-05T14:26:27;31.60;1.00
19033;DHT22;9649;51.042;13.804;2023-06-05T14:31:32;30.40;1.00
19033;DHT22;9649;51.042;13.804;2023-06-05T14:36:36;29.30;1.00
19033;DHT22;9649;51.042;13.804;2023-06-05T14:41:39;29.10;1.00
19033;DHT22;9649;51.042;13.804;2023-06-05T14:46:42;28.70;3.10
19033;DHT22;9649;51.042;13.804;2023-06-05T14:51:47;28.30;1.00
19033;DHT22;9649;51.042;13.804;2023-06-05T14:56:50;27.90;1.00
19033;DHT22;9649;51.042;13.804;2023-06-05T15:01:53;27.50;1.00
19033;DHT22;9649;51.042;13.804;2023-06-05T15:06:57;27.50;1.00
19033;DHT22;9649;51.042;13.804;2023-06-05T15:12:00;27.50;1.00
19033;DHT22;9649;51.042;13.804;2023-06-05T15:17:04;27.40;1.20
19033;DHT22;9649;51.042;13.804;2023-06-05T15:22:09;27.00;4.30
19033;DHT22;9649;51.042;13.804;2023-06-05T15:27:12;26.70;6.10
19033;DHT22;9649;51.042;13.804;2023-06-05T15:32:15;26.40;9.70
19033;DHT22;9649;51.042;13.804;2023-06-05T15:37:23;26.30;12.90
19033;DHT22;9649;51.042;13.804;2023-06-05T15:42:32;26.30;16.00
19033;DHT22;9649;51.042;13.804;2023-06-05T15:47:36;26.20;18.20
19033;DHT22;9649;51.042;13.804;2023-06-05T15:52:40;26.10;19.70
19033;DHT22;9649;51.042;13.804;2023-06-05T15:57:43;26.10;22.00
19033;DHT22;9649;51.042;13.804;2023-06-05T16:02:49;25.90;25.20
19033;DHT22;9649;51.042;13.804;2023-06-05T16:07:54;25.80;28.80
19033;DHT22;9649;51.042;13.804;2023-06-05T16:12:57;25.80;32.40
19033;DHT22;9649;51.042;13.804;2023-06-05T16:18:00;25.70;35.70
19033;DHT22;9649;51.042;13.804;2023-06-05T16:23:05;25.60;41.30
19033;DHT22;9649;51.042;13.804;2023-06-05T16:28:11;25.40;45.30
19033;DHT22;9649;51.042;13.804;2023-06-05T16:33:14;25.10;48.40
19033;DHT22;9649;51.042;13.804;2023-06-05T16:38:18;25.00;57.40
19033;DHT22;9649;51.042;13.804;2023-06-05T16:43:21;24.80;68.80
19033;DHT22;9649;51.042;13.804;2023-06-05T16:48:23;24.60;75.10
19033;DHT22;9649;51.042;13.804;2023-06-05T16:53:28;24.30;90.20
19033;DHT22;9649;51.042;13.804;2023-06-05T16:58:30;24.20;97.70
19033;DHT22;9649;51.042;13.804;2023-06-05T17:03:33;24.00;99.90
19033;DHT22;9649;51.042;13.804;2023-06-05T17:08:38;23.60;99.90
19033;DHT22;9649;51.042;13.804;2023-06-05T17:13:41;23.20;99.90
19033;DHT22;9649;51.042;13.804;2023-06-05T17:18:44;22.90;99.90
19033;DHT22;9649;51.042;13.804;2023-06-05T17:23:48;22.80;99.90
19033;DHT22;9649;51.042;13.804;2023-06-05T17:28:51;22.70;99.90
19033;DHT22;9649;51.042;13.804;2023-06-05T17:33:59;22.60;99.90
19033;DHT22;9649;51.042;13.804;2023-06-05T17:39:03;22.70;99.90
19033;DHT22;9649;51.042;13.804;2023-06-05T17:44:06;22.40;99.90
19033;DHT22;9649;51.042;13.804;2023-06-05T17:49:08;22.30;99.90
19033;DHT22;9649;51.042;13.804;2023-06-05T17:54:13;22.10;1.00
19033;DHT22;9649;51.042;13.804;2023-06-05T17:59:16;22.00;1.00
19033;DHT22;9649;51.042;13.804;2023-06-05T18:04:19;22.00;1.00
19033;DHT22;9649;51.042;13.804;2023-06-05T18:09:24;21.70;1.00
19033;DHT22;9649;51.042;13.804;2023-06-05T18:14:27;21.60;1.00
19033;DHT22;9649;51.042;13.804;2023-06-05T18:19:30;21.40;1.00
19033;DHT22;9649;51.042;13.804;2023-06-05T18:24:34;21.30;1.00
19033;DHT22;9649;51.042;13.804;2023-06-05T18:29:36;21.10;1.00
19033;DHT22;9649;51.042;13.804;2023-06-05T18:34:39;21.00;1.00
19033;DHT22;9649;51.042;13.804;2023-06-05T18:39:43;20.90;1.00
19033;DHT22;9649;51.042;13.804;2023-06-05T18:44:46;20.80;1.00
19033;DHT22;9649;51.042;13.804;2023-06-05T18:49:49;20.70;1.00
19033;DHT22;9649;51.042;13.804;2023-06-05T18:54:53;20.60;1.00
19033;DHT22;9649;51.042;13.804;2023-06-05T18:59:56;20.60;1.00
19033;DHT22;9649;51.042;13.804;2023-06-05T19:04:59;20.30;1.00
19033;DHT22;9649;51.042;13.804;2023-06-05T19:10:04;20.20;39.90
19033;DHT22;9649;51.042;13.804;2023-06-05T19:15:08;20.20;98.60
19033;DHT22;9649;51.042;13.804;2023-06-05T19:20:11;20.10;99.90
19033;DHT22;9649;51.042;13.804;2023-06-05T19:25:15;20.00;99.90
19033;DHT22;9649;51.042;13.804;2023-06-05T19:30:17;20.00;99.90
19033;DHT22;9649;51.042;13.804;2023-06-05T19:35:20;19.90;99.90
19033;DHT22;9649;51.042;13.804;2023-06-05T19:40:25;20.00;99.90
19033;DHT22;9649;51.042;13.804;2023-06-05T19:45:28;19.90;99.90
19033;DHT22;9649;51.042;13.804;2023-06-05T19:50:31;19.90;99.90
19033;DHT22;9649;51.042;13.804;2023-06-05T19:55:39;19.80;99.90
19033;DHT22;9649;51.042;13.804;2023-06-05T20:00:42;19.70;99.90
19033;DHT22;9649;51.042;13.804;2023-06-05T20:05:45;19.60;99.90
19033;DHT22;9649;51.042;13.804;2023-06-05T20:10:49;19.60;99.90
19033;DHT22;9649;51.042;13.804;2023-06-05T20:15:51;19.60;99.90
19033;DHT22;9649;51.042;13.804;2023-06-05T20:20:55;19.50;99.90
19033;DHT22;9649;51.042;13.804;2023-06-05T20:25:59;19.50;99.90
19033;DHT22;9649;51.042;13.804;2023-06-05T20:31:02;19.40;99.90
19033;DHT22;9649;51.042;13.804;2023-06-05T20:36:06;19.50;99.90
19033;DHT22;9649;51.042;13.804;2023-06-05T20:41:12;19.40;99.90
19033;DHT22;9649;51.042;13.804;2023-06-05T20:46:15;19.20;1.00
19033;DHT22;9649;51.042;13.804;2023-06-05T20:51:22;19.20;1.00
19033;DHT22;9649;51.042;13.804;2023-06-05T20:56:30;19.10;1.00
19033;DHT22;9649;51.042;13.804;2023-06-05T21:01:33;19.20;1.00
19033;DHT22;9649;51.042;13.804;2023-06-05T21:06:37;19.10;99.90
19033;DHT22;9649;51.042;13.804;2023-06-05T21:11:42;19.10;1.00
19033;DHT22;9649;51.042;13.804;2023-06-05T21:16:44;19.10;99.90
19033;DHT22;9649;51.042;13.804;2023-06-05T21:21:47;19.10;99.90
19033;DHT22;9649;51.042;13.804;2023-06-05T21:26:51;19.00;99.90
19033;DHT22;9649;51.042;13.804;2023-06-05T21:31:54;18.90;99.90
19033;DHT22;9649;51.042;13.804;2023-06-05T21:36:57;18.80;99.90
19033;DHT22;9649;51.042;13.804;2023-06-05T21:42:08;18.70;99.90
19033;DHT22;9649;51.042;13.804;2023-06-05T21:47:17;18.60;99.90
19033;DHT22;9649;51.042;13.804;2023-06-05T21:52:22;18.60;99.90
19033;DHT22;9649;51.042;13.804;2023-06-05T21:57:26;18.50;1.00
19033;DHT22;9649;51.042;13.804;2023-06-05T22:02:29;18.40;99.90
19033;DHT22;9649;51.042;13.804;2023-06-05T22:07:32;18.30;99.90
19033;DHT22;9649;51.042;13.804;2023-06-05T22:12:38;18.30;99.90
19033;DHT22;9649;51.042;13.804;2023-06-05T22:17:44;18.30;1.00
19033;DHT22;9649;51.042;13.804;2023-06-05T22:22:48;18.30;99.90
19033;DHT22;9649;51.042;13.804;2023-06-05T22:27:55;18.30;58.50
19033;DHT22;9649;51.042;13.804;2023-06-05T22:32:58;18.30;1.00
19033;DHT22;9649;51.042;13.804;2023-06-05T22:38:01;18.40;1.00
19033;DHT22;9649;51.042;13.804;2023-06-05T22:43:06;18.30;99.90
19033;DHT22;9649;51.042;13.804;2023-06-05T22:48:08;18.30;1.00
19033;DHT22;9649;51.042;13.804;2023-06-05T22:53:14;18.30;1.00
19033;DHT22;9649;51.042;13.804;2023-06-05T22:58:20;18.40;99.90
19033;DHT22;9649;51.042;13.804;2023-06-05T23:03:23;18.50;99.90
19033;DHT22;9649;51.042;13.804;2023-06-05T23:08:39;18.50;1.00
19033;DHT22;9649;51.042;13.804;2023-06-05T23:13:46;18.40;99.30
19033;DHT22;9649;51.042;13.804;2023-06-05T23:18:50;18.20;99.90
19033;DHT22;9649;51.042;13.804;2023-06-05T23:23:53;18.00;1.00
19033;DHT22;9649;51.042;13.804;2023-06-05T23:28:58;17.60;99.90
19033;DHT22;9649;51.042;13.804;2023-06-05T23:34:05;17.10;1.00
19033;DHT22;9649;51.042;13.804;2023-06-05T23:39:12;16.90;1.00
19033;DHT22;9649;51.042;13.804;2023-06-05T23:44:25;17.00;1.00
19033;DHT22;9649;51.042;13.804;2023-06-05T23:49:30;16.90;1.00
19033;DHT22;9649;51.042;13.804;2023-06-05T23:54:33;17.00;99.90
19033;DHT22;9649;51.042;13.804;2023-06-05T23:59:39;17.10;99.90
